Airfield :
LOGIN :

Register | Disclaimer

   EN    FR    IT 

 










Legend :    VFR   Marginal VFR   IFR   Intensive IFR   Very Intensive IFR
Visi :
Ceiling :
>= 8 km
>= 3000ft
5 to 8 km
1000 to 3000 ft
1500m to 5 km
500 to 1000 ft
800 to 1500m
200 to 500 ft
< 800m
< 200 ft
Symbols :   Thunderstorms  Fog  Heavy snow  Heavy precipitations  Wind > 20 kt
SIGMETs :     Misc.  Thunderstorms  Icing  Turbulence  Mountain Waves  Volcanic Ashes







- Airport Elevation : 16 ft
- IATA code : SDR


LEXJ - Santander Cantabria

CURRENT METAR :
  • 262000Z 25010KT 9999 SCT013 BKN018 20/17 Q1017

EXPIRED METARs :
  • 261930Z 26010KT 9999 BKN013 21/18 Q1017
  • 261900Z 28012KT 9999 SCT015 21/18 Q1016
  • 261830Z 27011KT 230V300 9999 FEW016 21/18 Q1016
  • 261800Z 28010KT 240V300 9999 SCT012 22/18 Q1015
  • 261730Z 30011KT 270V330 9999 BKN012 21/19 Q1015

TAF TAF LEXJ
Valid from the 26 at 15:00 until the 27 at 15:00 UTC


261400Z 2615/2715 30009KT CAVOK TX28/2715Z TN17/2705Z
PROB30
TEMPO 2615/2620 28016G28KT BKN010 FEW040TCU
PROB40
TEMPO 2620/2706 BKN010
TEMPO 2712/2715 03010KT
No reported NOTAMs for that airfield.



MET'MAP, your aeronautical weather chart ! - Copyright ORBIFLY December 2007 - Disclaimer

ORBIFLY MET'MAP TEAM :

Programming & Development : Alexandra Zaïnal
Concept & Development : Baudouin d'Aumeries
Co-Development & Prog : Marc-Olivier Méhu
Technical & hardware support : Manuel Goepfert

Contact : metmap@orbifly.com




SOURCES & CREDITS :

   NOAA